Nearby METAR Reports

 

KGRB - Ashwaubenon, Wisconsin, USA
Distance from station: WSW 10mi, 16km
Updated: 04/23/2017 7:53pm
Clear
Clear
 Wind from E
Wind: E 13 mph , 20 km/h
Temperature: 43°F , 6°C
Wind Chill: 36°F , 2°C
Dew Point: 36°F , 2°C
Humidity: 76%
Barometer: 30.11 inHg , 1019.6 hPa
Clouds: Clear
Visibility: 10 miles , 16 km
2017/04/24 00:53 KGRB 240053Z 08011KT 10SM CLR 06/02 A3011 RMK AO2 SLP199 T00610017
KOCQ - Oconto, Wisconsin, USA
Distance from station: N 24mi, 39km
Updated: 04/23/2017 8:15pm
Clear
Clear
 Wind from ENE
Wind: ENE 7 mph , 11 km/h
Temperature: 39°F , 4°C
Wind Chill: 34°F , 1°C
Dew Point: 27°F , -3°C
Humidity: 61%
Barometer: 30.13 inHg , 1020.3 hPa
Clouds: Clear
Visibility: 10 miles , 16 km
2017/04/24 01:15 KOCQ 240115Z AUTO 07006KT 10SM CLR 04/M03 A3013 RMK AO1 T00421030
KMTW - Manitowac Muni, Wisconsin, USA
Distance from station: SSE 31mi, 49km
Updated: 04/23/2017 7:56pm
Clear
Clear
 Wind from NNE
Wind: NNE 8 mph , 13 km/h, Gust: 17 mph , 28 km/h
Temperature: 37°F , 3°C
Wind Chill: 31°F , -1°C
Dew Point: 28°F , -2°C
Humidity: 70%
Barometer: 30.11 inHg , 1019.6 hPa
Clouds: Clear
2017/04/24 00:56 KMTW 240056Z AUTO 03007G15KT CLR 03/M02 A3011 RMK AO2 SLP219 T00331017 PWINO
 
KATW - Appleton/Outagam, Wisconsin, USA
Distance from station: WSW 33mi, 54km
Updated: 04/23/2017 7:45pm
Few Clouds
Few Clouds
 Wind from E
Wind: E 8 mph , 13 km/h
Temperature: 45°F , 7°C
Wind Chill: 41°F , 5°C
Dew Point: 34°F , 1°C
Humidity: 66%
Barometer: 30.06 inHg , 1017.9 hPa
Clouds: Few Clouds
Visibility: 10 miles , 16 km
Cloud details: Few Clouds 10000 ft
2017/04/24 00:45 KATW 240045Z 10007KT 10SM FEW100 07/01 A3006
KSUE - Sturgeon Bay, Wisconsin, USA
Distance from station: NE 34mi, 55km
Updated: 04/23/2017 7:56pm
Clear
Clear
 Wind from NE
Wind: NE 8 mph , 13 km/h
Temperature: 37°F , 3°C
Wind Chill: 31°F , -1°C
Dew Point: 27°F , -3°C
Humidity: 65%
Barometer: 30.13 inHg , 1020.3 hPa
Clouds: Clear
Visibility: 10 miles , 16 km
2017/04/24 00:56 KSUE 240056Z AUTO 05007KT 10SM CLR 03/M03 A3013 RMK AO2 SLP227 T00331028
KEZS - Shawano Muni, Wisconsin, USA
Distance from station: WNW 36mi, 58km
Updated: 04/23/2017 8:15pm
Clear
Clear
 Wind from E
Wind: E 12 mph , 19 km/h
Temperature: 43°F , 6°C
Wind Chill: 37°F , 3°C
Dew Point: 32°F , 0°C
Humidity: 66%
Barometer: 30.11 inHg , 1019.6 hPa
Clouds: Clear
Visibility: 10 miles , 16 km
2017/04/24 01:15 KEZS 240115Z AUTO 09010KT 10SM CLR 06/00 A3011 RMK AO2 T00580002
 
KCLI - Clintonville, Wisconsin, USA
Distance from station: W 40mi, 64km
Updated: 04/23/2017 8:15pm
Clear
Clear
 Wind from E
Wind: E 12 mph , 19 km/h, Gust: 22 mph , 35 km/h
Temperature: 41°F , 5°C
Wind Chill: 34°F , 1°C
Dew Point: 32°F , 0°C
Humidity: 70%
Barometer: 30.09 inHg , 1019 hPa
Clouds: Clear
Visibility: 10 miles , 16 km
2017/04/24 01:15 KCLI 240115Z AUTO 10010G19KT 10SM CLR 05/00 A3009 RMK AO2
KMNM - Menominee, Michigan, USA
Distance from station: NNE 44mi, 72km
Updated: 04/23/2017 7:56pm
Clear
Clear
 Wind from ENE
Wind: ENE 16 mph , 26 km/h
Temperature: 39°F , 4°C
Wind Chill: 30°F , -1°C
Dew Point: 27°F , -3°C
Humidity: 61%
Barometer: 30.14 inHg , 1020.7 hPa
Clouds: Clear
Visibility: 10 miles , 16 km
2017/04/24 00:56 KMNM 240056Z AUTO 07014KT 10SM CLR 04/M03 A3014 RMK AO2 SLP229 T00391028 $
KOSH - Oshkosh, Wisconsin, USA
Distance from station: SW 49mi, 78km
Updated: 04/23/2017 7:53pm
Clear
Clear
 Wind from E
Wind: E 12 mph , 19 km/h
Temperature: 45°F , 7°C
Wind Chill: 39°F , 4°C
Dew Point: 36°F , 2°C
Humidity: 71%
Barometer: 30.06 inHg , 1017.9 hPa
Clouds: Clear
Visibility: 10 miles , 16 km
2017/04/24 00:53 KOSH 240053Z 08010KT 10SM CLR 07/02 A3006 RMK AO2 SLP184 T00670022
 
KSBM - Sheboygan, Wisconsin, USA
Distance from station: S 51mi, 82km
Updated: 04/23/2017 7:53pm
Clear
Clear
 Wind from NE
Wind: NE 16 mph , 26 km/h
Temperature: 37°F , 3°C
Wind Chill: 28°F , -2°C
Dew Point: 32°F , 0°C
Humidity: 81%
Barometer: 30.09 inHg , 1019 hPa
Clouds: Clear
Visibility: 10 miles , 16 km
2017/04/24 00:53 KSBM 240053Z AUTO 04014KT 10SM CLR 03/00 A3009 RMK AO2 SLP193 T00330000
KPCZ - Waupaca, Wisconsin, USA
Distance from station: WSW 55mi, 88km
Updated: 04/23/2017 8:15pm
Clear
Clear
 Wind from ENE
Wind: ENE 12 mph , 19 km/h
Temperature: 48°F , 9°C
Wind Chill: 43°F , 6°C
Dew Point: 39°F , 4°C
Humidity: 71%
Barometer: 30.07 inHg , 1018.3 hPa
Clouds: Clear
Visibility: 10 miles , 16 km
2017/04/24 01:15 KPCZ 240115Z AUTO 07010KT 10SM CLR 09/04 A3007 RMK AO2 T00900038
KFLD - Fond Du Lac, Wisconsin, USA
Distance from station: SSW 58mi, 94km
Updated: 04/23/2017 7:53pm
Clear
Clear
 Wind from E
Wind: E 10 mph , 17 km/h
Temperature: 45°F , 7°C
Wind Chill: 40°F , 4°C
Dew Point: 34°F , 1°C
Humidity: 66%
Barometer: 30.07 inHg , 1018.3 hPa
Clouds: Clear
Visibility: 10 miles , 16 km
2017/04/24 00:53 KFLD 240053Z AUTO 10009KT 10SM CLR 07/01 A3007 RMK AO2 SLP188 T00670011
 
KAIG - Antigo/Langlade, Wisconsin, USA
Distance from station: NW 73mi, 117km
Updated: 04/23/2017 8:15pm
Clear
Clear
 Wind from ESE
Wind: ESE 15 mph , 24 km/h
Temperature: 43°F , 6°C
Wind Chill: 36°F , 2°C
Dew Point: 34°F , 1°C
Humidity: 71%
Barometer: 30.06 inHg , 1017.9 hPa
Clouds: Clear
Visibility: 10 miles , 16 km
2017/04/24 01:15 KAIG 240115Z AUTO 12013KT 10SM CLR 06/01 A3006 RMK AO2 T00610012
KY50 - Wautoma, Wisconsin, USA
Distance from station: WSW 75mi, 121km
Updated: 04/23/2017 7:56pm
Clear
Clear
 Wind from E
Wind: E 9 mph , 15 km/h
Temperature: 50°F , 10°C
Wind Chill: 46°F , 8°C
Dew Point: 41°F , 5°C
Humidity: 71%
Barometer: 30.04 inHg , 1017.3 hPa
Clouds: Clear
Visibility: 10 miles , 16 km
2017/04/24 00:56 KY50 240056Z AUTO 09008KT 10SM CLR 10/05 A3004 RMK AO2 SLP201 T01000050
KETB - West Bend, Wisconsin, USA
Distance from station: S 76mi, 123km
Updated: 04/23/2017 8:15pm
Clear
Clear
 Wind from E
Wind: E 12 mph , 19 km/h
Temperature: 37°F , 3°C
Wind Chill: 29°F , -2°C
Dew Point: 34°F , 1°C
Humidity: 87%
Barometer: 30.08 inHg , 1018.6 hPa
Clouds: Clear
Visibility: 10 miles , 16 km
2017/04/24 01:15 KETB 240115Z AUTO 08010KT 10SM CLR 03/01 A3008 RMK AO2
 
KSTE - Stevens Point, Wisconsin, USA
Distance from station: W 79mi, 127km
Updated: 04/23/2017 8:15pm
Clear
Clear
 Wind from E
Wind: E 13 mph , 20 km/h
Temperature: 46°F , 8°C
Wind Chill: 40°F , 4°C
Dew Point: 37°F , 3°C
Humidity: 71%
Barometer: 30.04 inHg , 1017.3 hPa
Clouds: Clear
Visibility: 10 miles , 16 km
2017/04/24 01:15 KSTE 240115Z AUTO 10011KT 10SM CLR 08/03 A3004 RMK AO2 T00770031
KUNU - Juneau, Wisconsin, USA
Distance from station: SSW 85mi, 137km
Updated: 04/23/2017 8:15pm
Clear
Clear
 Wind from ENE
Wind: ENE 8 mph , 13 km/h
Temperature: 45°F , 7°C
Wind Chill: 41°F , 5°C
Dew Point: 37°F , 3°C
Humidity: 76%
Barometer: 30.06 inHg , 1017.9 hPa
Clouds: Clear
Visibility: 10 miles , 16 km
2017/04/24 01:15 KUNU 240115Z AUTO 07007KT 10SM CLR 07/03 A3006 RMK AO2 T00670027